sensor_id;sensor_type;location;lat;lon;timestamp;noise_LAeq;noise_LA_min;noise_LA_max;noise_LA01;noise_LA95
46749;Laerm;33775;47.992;11.864;2023-04-12T00:00:03;37.31;28.67;39.81;;
46749;Laerm;33775;47.992;11.864;2023-04-12T00:02:30;37.39;29.92;39.58;;
46749;Laerm;33775;47.992;11.864;2023-04-12T00:04:59;37.44;28.67;39.58;;
46749;Laerm;33775;47.992;11.864;2023-04-12T00:07:26;37.43;28.67;39.81;;
46749;Laerm;33775;47.992;11.864;2023-04-12T00:09:53;37.42;30.89;39.70;;
46749;Laerm;33775;47.992;11.864;2023-04-12T00:12:18;37.41;29.92;39.46;;
46749;Laerm;33775;47.992;11.864;2023-04-12T00:14:45;37.39;30.89;39.81;;
46749;Laerm;33775;47.992;11.864;2023-04-12T00:17:10;37.36;28.67;39.70;;
46749;Laerm;33775;47.992;11.864;2023-04-12T00:19:36;37.36;29.92;39.58;;
46749;Laerm;33775;47.992;11.864;2023-04-12T00:22:05;37.28;31.68;39.70;;
46749;Laerm;33775;47.992;11.864;2023-04-12T00:24:30;37.36;28.67;39.58;;
46749;Laerm;33775;47.992;11.864;2023-04-12T00:26:55;37.33;29.92;39.58;;
46749;Laerm;33775;47.992;11.864;2023-04-12T00:29:21;37.35;29.92;39.81;;
46749;Laerm;33775;47.992;11.864;2023-04-12T00:31:46;37.38;30.54;39.58;;
46749;Laerm;33775;47.992;11.864;2023-04-12T00:34:11;37.38;30.89;39.70;;
46749;Laerm;33775;47.992;11.864;2023-04-12T00:36:36;37.36;30.89;39.58;;
46749;Laerm;33775;47.992;11.864;2023-04-12T00:39:01;37.39;29.92;39.46;;
46749;Laerm;33775;47.992;11.864;2023-04-12T00:41:27;37.37;30.89;39.58;;
46749;Laerm;33775;47.992;11.864;2023-04-12T00:43:52;37.36;29.92;39.81;;
46749;Laerm;33775;47.992;11.864;2023-04-12T00:46:17;37.34;30.89;39.46;;
46749;Laerm;33775;47.992;11.864;2023-04-12T00:48:43;37.15;30.89;39.46;;
46749;Laerm;33775;47.992;11.864;2023-04-12T00:51:11;37.17;28.32;39.46;;
46749;Laerm;33775;47.992;11.864;2023-04-12T00:53:37;37.06;29.92;39.34;;
46749;Laerm;33775;47.992;11.864;2023-04-12T00:56:03;37.07;30.89;39.58;;
46749;Laerm;33775;47.992;11.864;2023-04-12T00:58:28;37.16;26.91;39.46;;
46749;Laerm;33775;47.992;11.864;2023-04-12T01:00:55;37.19;30.89;39.46;;
46749;Laerm;33775;47.992;11.864;2023-04-12T01:03:21;37.20;29.92;39.58;;
46749;Laerm;33775;47.992;11.864;2023-04-12T01:05:59;37.21;30.89;39.46;;
46749;Laerm;33775;47.992;11.864;2023-04-12T01:08:35;37.18;28.67;39.58;;
46749;Laerm;33775;47.992;11.864;2023-04-12T01:13:38;37.21;31.68;39.46;;
46749;Laerm;33775;47.992;11.864;2023-04-12T01:18:48;37.27;28.67;39.34;;
46749;Laerm;33775;47.992;11.864;2023-04-12T01:21:17;37.23;30.89;39.46;;
46749;Laerm;33775;47.992;11.864;2023-04-12T01:23:50;37.23;30.89;39.46;;
46749;Laerm;33775;47.992;11.864;2023-04-12T01:28:45;37.24;26.91;39.46;;
46749;Laerm;33775;47.992;11.864;2023-04-12T01:31:14;37.19;30.89;39.34;;
46749;Laerm;33775;47.992;11.864;2023-04-12T01:33:39;37.21;29.92;39.46;;
46749;Laerm;33775;47.992;11.864;2023-04-12T01:36:17;37.23;29.92;39.46;;
46749;Laerm;33775;47.992;11.864;2023-04-12T01:38:42;37.24;28.67;39.46;;
46749;Laerm;33775;47.992;11.864;2023-04-12T01:41:08;37.26;29.92;39.34;;
46749;Laerm;33775;47.992;11.864;2023-04-12T01:43:39;37.27;30.89;39.92;;
46749;Laerm;33775;47.992;11.864;2023-04-12T01:46:04;37.29;28.67;39.70;;
46749;Laerm;33775;47.992;11.864;2023-04-12T01:48:29;37.27;26.91;39.70;;
46749;Laerm;33775;47.992;11.864;2023-04-12T01:51:13;37.29;30.89;39.58;;
46749;Laerm;33775;47.992;11.864;2023-04-12T01:53:49;37.23;31.68;39.58;;
46749;Laerm;33775;47.992;11.864;2023-04-12T01:56:18;37.07;30.89;39.46;;
46749;Laerm;33775;47.992;11.864;2023-04-12T01:58:45;36.95;29.92;39.58;;
46749;Laerm;33775;47.992;11.864;2023-04-12T02:01:11;36.95;29.92;39.78;;
46749;Laerm;33775;47.992;11.864;2023-04-12T02:03:38;37.03;29.92;39.34;;
46749;Laerm;33775;47.992;11.864;2023-04-12T02:06:06;37.08;28.67;39.70;;
46749;Laerm;33775;47.992;11.864;2023-04-12T02:08:31;37.09;28.67;39.34;;
46749;Laerm;33775;47.992;11.864;2023-04-12T02:10:57;37.14;30.89;39.58;;
46749;Laerm;33775;47.992;11.864;2023-04-12T02:13:22;37.20;30.89;39.92;;
46749;Laerm;33775;47.992;11.864;2023-04-12T02:15:47;37.18;29.92;39.81;;
46749;Laerm;33775;47.992;11.864;2023-04-12T02:18:13;37.15;30.89;39.46;;
46749;Laerm;33775;47.992;11.864;2023-04-12T02:20:40;37.16;29.57;39.58;;
46749;Laerm;33775;47.992;11.864;2023-04-12T02:23:06;37.19;29.92;39.46;;
46749;Laerm;33775;47.992;11.864;2023-04-12T02:25:31;37.17;30.89;40.03;;
46749;Laerm;33775;47.992;11.864;2023-04-12T02:27:57;37.12;23.90;39.70;;
46749;Laerm;33775;47.992;11.864;2023-04-12T02:30:22;37.15;30.89;39.46;;
46749;Laerm;33775;47.992;11.864;2023-04-12T02:32:47;37.16;26.91;39.58;;
46749;Laerm;33775;47.992;11.864;2023-04-12T02:35:14;37.19;30.89;39.58;;
46749;Laerm;33775;47.992;11.864;2023-04-12T02:37:43;37.18;30.89;39.34;;
46749;Laerm;33775;47.992;11.864;2023-04-12T02:40:10;37.18;30.89;39.70;;
46749;Laerm;33775;47.992;11.864;2023-04-12T02:42:36;37.15;30.89;39.34;;
46749;Laerm;33775;47.992;11.864;2023-04-12T02:45:02;37.16;29.92;39.70;;
46749;Laerm;33775;47.992;11.864;2023-04-12T02:47:27;37.18;26.91;39.35;;
46749;Laerm;33775;47.992;11.864;2023-04-12T02:49:54;37.21;29.92;39.70;;
46749;Laerm;33775;47.992;11.864;2023-04-12T02:52:19;37.23;28.32;39.70;;
46749;Laerm;33775;47.992;11.864;2023-04-12T02:54:45;37.26;30.89;39.34;;
46749;Laerm;33775;47.992;11.864;2023-04-12T02:57:10;37.27;29.92;39.58;;
46749;Laerm;33775;47.992;11.864;2023-04-12T02:59:35;37.29;29.92;39.46;;
46749;Laerm;33775;47.992;11.864;2023-04-12T03:02:00;37.31;28.67;39.92;;
46749;Laerm;33775;47.992;11.864;2023-04-12T03:04:26;37.25;26.91;39.58;;
46749;Laerm;33775;47.992;11.864;2023-04-12T03:06:54;37.25;26.91;39.92;;
46749;Laerm;33775;47.992;11.864;2023-04-12T03:09:19;37.24;29.92;40.03;;
46749;Laerm;33775;47.992;11.864;2023-04-12T03:11:45;37.25;30.89;39.70;;
46749;Laerm;33775;47.992;11.864;2023-04-12T03:14:10;37.19;30.89;39.46;;
46749;Laerm;33775;47.992;11.864;2023-04-12T03:16:36;37.19;29.92;39.58;;
46749;Laerm;33775;47.992;11.864;2023-04-12T03:19:01;37.20;29.92;39.34;;
46749;Laerm;33775;47.992;11.864;2023-04-12T03:21:27;37.22;29.92;39.92;;
46749;Laerm;33775;47.992;11.864;2023-04-12T03:23:52;37.22;30.89;39.58;;
46749;Laerm;33775;47.992;11.864;2023-04-12T03:26:17;37.28;28.67;39.46;;
46749;Laerm;33775;47.992;11.864;2023-04-12T03:28:44;37.27;26.91;40.53;;
46749;Laerm;33775;47.992;11.864;2023-04-12T03:31:09;37.24;30.89;39.70;;
46749;Laerm;33775;47.992;11.864;2023-04-12T03:33:36;37.25;28.67;39.46;;
46749;Laerm;33775;47.992;11.864;2023-04-12T03:36:02;37.04;28.67;39.34;;
46749;Laerm;33775;47.992;11.864;2023-04-12T03:38:27;36.94;28.67;39.34;;
46749;Laerm;33775;47.992;11.864;2023-04-12T03:40:52;36.76;28.67;39.46;;
46749;Laerm;33775;47.992;11.864;2023-04-12T03:43:17;36.66;28.67;39.70;;
46749;Laerm;33775;47.992;11.864;2023-04-12T03:45:43;36.54;28.67;39.46;;
46749;Laerm;33775;47.992;11.864;2023-04-12T03:48:08;36.54;26.91;39.34;;
46749;Laerm;33775;47.992;11.864;2023-04-12T03:50:35;36.52;30.89;39.46;;
46749;Laerm;33775;47.992;11.864;2023-04-12T03:53:08;36.57;28.67;39.08;;
46749;Laerm;33775;47.992;11.864;2023-04-12T03:55:33;36.53;26.91;39.58;;
46749;Laerm;33775;47.992;11.864;2023-04-12T03:57:58;36.49;29.92;39.21;;
46749;Laerm;33775;47.992;11.864;2023-04-12T04:00:23;36.60;26.91;39.21;;
46749;Laerm;33775;47.992;11.864;2023-04-12T04:02:48;36.57;28.67;39.34;;
46749;Laerm;33775;47.992;11.864;2023-04-12T04:05:14;36.51;28.67;39.34;;
46749;Laerm;33775;47.992;11.864;2023-04-12T04:07:39;36.50;29.92;39.21;;
46749;Laerm;33775;47.992;11.864;2023-04-12T04:10:05;36.52;28.67;39.34;;
46749;Laerm;33775;47.992;11.864;2023-04-12T04:12:30;36.52;28.67;39.46;;
46749;Laerm;33775;47.992;11.864;2023-04-12T04:14:55;36.56;28.67;39.21;;
46749;Laerm;33775;47.992;11.864;2023-04-12T04:17:20;36.67;29.92;39.35;;
46749;Laerm;33775;47.992;11.864;2023-04-12T04:19:46;36.67;23.90;39.34;;
46749;Laerm;33775;47.992;11.864;2023-04-12T04:22:11;36.64;23.90;39.70;;
46749;Laerm;33775;47.992;11.864;2023-04-12T04:24:36;36.67;30.89;39.81;;
46749;Laerm;33775;47.992;11.864;2023-04-12T04:27:03;36.85;28.67;39.58;;
46749;Laerm;33775;47.992;11.864;2023-04-12T04:29:28;37.05;28.67;39.34;;
46749;Laerm;33775;47.992;11.864;2023-04-12T04:31:54;37.09;28.67;39.46;;
46749;Laerm;33775;47.992;11.864;2023-04-12T04:34:19;37.24;30.89;39.34;;
46749;Laerm;33775;47.992;11.864;2023-04-12T04:36:46;37.25;29.92;39.58;;
46749;Laerm;33775;47.992;11.864;2023-04-12T04:39:11;37.29;30.89;39.58;;
46749;Laerm;33775;47.992;11.864;2023-04-12T04:41:36;37.25;29.92;39.78;;
46749;Laerm;33775;47.992;11.864;2023-04-12T04:44:05;37.24;26.91;39.58;;
46749;Laerm;33775;47.992;11.864;2023-04-12T04:46:33;37.19;30.89;39.58;;
46749;Laerm;33775;47.992;11.864;2023-04-12T04:49:00;37.21;29.92;39.46;;
46749;Laerm;33775;47.992;11.864;2023-04-12T04:51:26;37.24;30.89;39.81;;
46749;Laerm;33775;47.992;11.864;2023-04-12T04:53:51;37.22;28.67;39.70;;
46749;Laerm;33775;47.992;11.864;2023-04-12T04:56:16;37.18;30.89;39.46;;
46749;Laerm;33775;47.992;11.864;2023-04-12T04:58:41;37.21;28.67;39.34;;
46749;Laerm;33775;47.992;11.864;2023-04-12T05:01:07;37.07;30.89;39.46;;
46749;Laerm;33775;47.992;11.864;2023-04-12T05:03:32;37.00;29.92;39.58;;
46749;Laerm;33775;47.992;11.864;2023-04-12T05:05:58;36.96;28.67;39.34;;
46749;Laerm;33775;47.992;11.864;2023-04-12T05:08:23;37.16;31.68;39.34;;
46749;Laerm;33775;47.992;11.864;2023-04-12T05:10:49;37.24;31.68;39.58;;
46749;Laerm;33775;47.992;11.864;2023-04-12T05:13:15;37.20;30.89;39.46;;
46749;Laerm;33775;47.992;11.864;2023-04-12T05:15:40;37.23;30.89;39.70;;
46749;Laerm;33775;47.992;11.864;2023-04-12T05:18:06;37.20;28.67;39.81;;
46749;Laerm;33775;47.992;11.864;2023-04-12T05:20:31;37.28;30.89;39.34;;
46749;Laerm;33775;47.992;11.864;2023-04-12T05:22:56;37.27;26.91;39.34;;
46749;Laerm;33775;47.992;11.864;2023-04-12T05:25:21;37.12;30.89;39.46;;
46749;Laerm;33775;47.992;11.864;2023-04-12T05:27:46;37.31;30.89;39.58;;
46749;Laerm;33775;47.992;11.864;2023-04-12T05:30:12;37.23;30.89;39.46;;
46749;Laerm;33775;47.992;11.864;2023-04-12T05:32:37;37.24;30.89;40.13;;
46749;Laerm;33775;47.992;11.864;2023-04-12T05:35:02;37.27;30.89;39.70;;
46749;Laerm;33775;47.992;11.864;2023-04-12T05:37:27;37.41;29.57;39.58;;
46749;Laerm;33775;47.992;11.864;2023-04-12T05:39:53;37.34;30.89;39.70;;
46749;Laerm;33775;47.992;11.864;2023-04-12T05:42:18;37.33;30.89;39.58;;
46749;Laerm;33775;47.992;11.864;2023-04-12T05:44:43;37.37;30.89;39.81;;
46749;Laerm;33775;47.992;11.864;2023-04-12T05:47:09;37.38;30.89;39.58;;
46749;Laerm;33775;47.992;11.864;2023-04-12T05:49:34;37.36;30.89;39.81;;
46749;Laerm;33775;47.992;11.864;2023-04-12T05:52:00;37.39;30.89;39.58;;
46749;Laerm;33775;47.992;11.864;2023-04-12T05:54:25;37.39;30.89;39.70;;
46749;Laerm;33775;47.992;11.864;2023-04-12T05:56:51;37.37;26.91;39.58;;
46749;Laerm;33775;47.992;11.864;2023-04-12T05:59:18;37.31;29.92;39.58;;
46749;Laerm;33775;47.992;11.864;2023-04-12T06:01:43;37.18;29.92;39.70;;
46749;Laerm;33775;47.992;11.864;2023-04-12T06:04:08;37.20;28.67;39.58;;
46749;Laerm;33775;47.992;11.864;2023-04-12T06:06:34;37.35;31.68;39.70;;
46749;Laerm;33775;47.992;11.864;2023-04-12T06:08:59;37.34;30.89;39.46;;
46749;Laerm;33775;47.992;11.864;2023-04-12T06:11:25;37.01;28.67;39.34;;
46749;Laerm;33775;47.992;11.864;2023-04-12T06:13:50;36.97;26.91;39.46;;
46749;Laerm;33775;47.992;11.864;2023-04-12T06:16:15;36.98;29.92;39.34;;
46749;Laerm;33775;47.992;11.864;2023-04-12T06:18:41;37.04;30.89;39.23;;
46749;Laerm;33775;47.992;11.864;2023-04-12T06:21:06;37.02;23.90;39.58;;
46749;Laerm;33775;47.992;11.864;2023-04-12T06:23:31;36.86;28.67;39.34;;
46749;Laerm;33775;47.992;11.864;2023-04-12T06:25:56;36.85;29.92;39.46;;
46749;Laerm;33775;47.992;11.864;2023-04-12T06:28:21;36.72;28.67;39.70;;
46749;Laerm;33775;47.992;11.864;2023-04-12T06:30:47;36.60;28.67;39.58;;
46749;Laerm;33775;47.992;11.864;2023-04-12T06:33:12;36.76;28.67;39.46;;
46749;Laerm;33775;47.992;11.864;2023-04-12T06:35:37;36.67;29.92;39.35;;
46749;Laerm;33775;47.992;11.864;2023-04-12T06:38:02;36.72;26.91;39.21;;
46749;Laerm;33775;47.992;11.864;2023-04-12T06:40:27;36.82;30.89;39.58;;
46749;Laerm;33775;47.992;11.864;2023-04-12T06:42:53;36.81;30.89;39.46;;
46749;Laerm;33775;47.992;11.864;2023-04-12T06:45:18;36.82;28.67;39.34;;
46749;Laerm;33775;47.992;11.864;2023-04-12T06:47:43;36.66;26.91;39.46;;
46749;Laerm;33775;47.992;11.864;2023-04-12T06:50:08;36.59;29.92;39.21;;
46749;Laerm;33775;47.992;11.864;2023-04-12T06:52:34;36.71;29.92;39.70;;
46749;Laerm;33775;47.992;11.864;2023-04-12T06:54:59;36.58;26.91;39.46;;
46749;Laerm;33775;47.992;11.864;2023-04-12T06:57:24;36.45;29.92;39.92;;
46749;Laerm;33775;47.992;11.864;2023-04-12T06:59:50;36.43;29.92;39.08;;
46749;Laerm;33775;47.992;11.864;2023-04-12T07:02:15;36.45;28.67;39.57;;
46749;Laerm;33775;47.992;11.864;2023-04-12T07:04:40;36.39;29.92;39.34;;
46749;Laerm;33775;47.992;11.864;2023-04-12T07:07:05;36.40;29.92;39.70;;
46749;Laerm;33775;47.992;11.864;2023-04-12T07:09:30;36.42;28.67;39.34;;
46749;Laerm;33775;47.992;11.864;2023-04-12T07:11:59;36.42;29.92;39.58;;
46749;Laerm;33775;47.992;11.864;2023-04-12T07:14:24;36.40;29.57;40.53;;
46749;Laerm;33775;47.992;11.864;2023-04-12T07:16:50;36.46;28.67;39.34;;
46749;Laerm;33775;47.992;11.864;2023-04-12T07:19:15;36.37;29.92;39.46;;
46749;Laerm;33775;47.992;11.864;2023-04-12T07:21:40;36.48;31.68;39.58;;
46749;Laerm;33775;47.992;11.864;2023-04-12T07:24:05;36.51;30.89;39.34;;
46749;Laerm;33775;47.992;11.864;2023-04-12T07:26:31;36.50;30.89;39.46;;
46749;Laerm;33775;47.992;11.864;2023-04-12T07:28:56;36.55;31.33;40.13;;
46749;Laerm;33775;47.992;11.864;2023-04-12T07:31:21;36.51;30.89;39.81;;
46749;Laerm;33775;47.992;11.864;2023-04-12T07:33:47;36.52;29.92;39.58;;
46749;Laerm;33775;47.992;11.864;2023-04-12T07:36:12;36.49;28.67;39.46;;
46749;Laerm;33775;47.992;11.864;2023-04-12T07:38:40;36.37;23.90;39.46;;
46749;Laerm;33775;47.992;11.864;2023-04-12T07:41:05;36.44;29.92;39.70;;
46749;Laerm;33775;47.992;11.864;2023-04-12T07:43:30;36.48;30.89;39.58;;
46749;Laerm;33775;47.992;11.864;2023-04-12T07:45:55;36.46;26.91;39.70;;
46749;Laerm;33775;47.992;11.864;2023-04-12T07:48:21;36.43;30.89;39.58;;
46749;Laerm;33775;47.992;11.864;2023-04-12T07:50:46;36.41;29.92;39.58;;
46749;Laerm;33775;47.992;11.864;2023-04-12T07:55:44;36.45;29.92;39.46;;
46749;Laerm;33775;47.992;11.864;2023-04-12T07:58:09;36.53;29.92;39.46;;
46749;Laerm;33775;47.992;11.864;2023-04-12T08:00:34;36.58;29.92;39.70;;
46749;Laerm;33775;47.992;11.864;2023-04-12T08:03:00;36.65;31.68;39.92;;
46749;Laerm;33775;47.992;11.864;2023-04-12T08:05:25;36.56;30.89;39.46;;
46749;Laerm;33775;47.992;11.864;2023-04-12T08:07:50;36.70;31.68;39.58;;
46749;Laerm;33775;47.992;11.864;2023-04-12T08:10:15;36.76;29.92;39.81;;
46749;Laerm;33775;47.992;11.864;2023-04-12T08:12:40;36.80;30.89;40.13;;
46749;Laerm;33775;47.992;11.864;2023-04-12T08:15:06;36.79;31.68;39.92;;
46749;Laerm;33775;47.992;11.864;2023-04-12T08:17:31;36.72;32.35;39.70;;
46749;Laerm;33775;47.992;11.864;2023-04-12T08:19:56;36.74;29.92;39.92;;
46749;Laerm;33775;47.992;11.864;2023-04-12T08:22:21;36.76;28.67;40.03;;
46749;Laerm;33775;47.992;11.864;2023-04-12T08:24:47;36.69;30.89;39.46;;
46749;Laerm;33775;47.992;11.864;2023-04-12T08:27:12;36.66;30.89;39.81;;
46749;Laerm;33775;47.992;11.864;2023-04-12T08:29:38;36.60;30.89;39.58;;
46749;Laerm;33775;47.992;11.864;2023-04-12T08:32:03;36.66;30.89;39.70;;
46749;Laerm;33775;47.992;11.864;2023-04-12T08:34:29;36.66;30.89;39.58;;
46749;Laerm;33775;47.992;11.864;2023-04-12T08:36:54;36.68;30.89;39.34;;
46749;Laerm;33775;47.992;11.864;2023-04-12T08:39:23;36.65;29.92;39.70;;
46749;Laerm;33775;47.992;11.864;2023-04-12T08:41:48;36.67;30.89;40.03;;
46749;Laerm;33775;47.992;11.864;2023-04-12T08:44:14;36.58;30.89;39.34;;
46749;Laerm;33775;47.992;11.864;2023-04-12T08:46:40;36.63;30.89;39.70;;
46749;Laerm;33775;47.992;11.864;2023-04-12T08:49:06;36.48;30.54;39.21;;
46749;Laerm;33775;47.992;11.864;2023-04-12T08:51:31;36.52;29.92;39.81;;
46749;Laerm;33775;47.992;11.864;2023-04-12T08:53:57;36.49;30.54;39.46;;
46749;Laerm;33775;47.992;11.864;2023-04-12T08:56:23;36.51;28.67;39.46;;
46749;Laerm;33775;47.992;11.864;2023-04-12T08:58:48;36.49;30.89;39.92;;
46749;Laerm;33775;47.992;11.864;2023-04-12T09:01:15;36.42;29.92;39.46;;
46749;Laerm;33775;47.992;11.864;2023-04-12T09:03:41;36.39;28.67;39.46;;
46749;Laerm;33775;47.992;11.864;2023-04-12T09:06:06;36.42;26.91;39.46;;
46749;Laerm;33775;47.992;11.864;2023-04-12T09:08:32;36.49;29.92;39.70;;
46749;Laerm;33775;47.992;11.864;2023-04-12T09:10:57;36.46;30.89;39.34;;
46749;Laerm;33775;47.992;11.864;2023-04-12T09:13:32;36.43;30.89;39.70;;
46749;Laerm;33775;47.992;11.864;2023-04-12T09:15:58;36.60;30.89;39.58;;
46749;Laerm;33775;47.992;11.864;2023-04-12T09:18:24;36.70;30.89;39.46;;
46749;Laerm;33775;47.992;11.864;2023-04-12T09:20:51;36.93;30.89;39.58;;
46749;Laerm;33775;47.992;11.864;2023-04-12T09:23:29;37.00;30.89;39.34;;
46749;Laerm;33775;47.992;11.864;2023-04-12T09:25:54;36.49;30.54;39.21;;
46749;Laerm;33775;47.992;11.864;2023-04-12T09:30:48;36.52;29.92;39.34;;
46749;Laerm;33775;47.992;11.864;2023-04-12T09:33:16;36.56;30.89;39.34;;
46749;Laerm;33775;47.992;11.864;2023-04-12T09:35:41;36.56;30.89;39.58;;
46749;Laerm;33775;47.992;11.864;2023-04-12T09:38:07;36.52;30.89;39.46;;
46749;Laerm;33775;47.992;11.864;2023-04-12T09:40:33;36.58;29.92;39.81;;
46749;Laerm;33775;47.992;11.864;2023-04-12T09:43:00;36.69;30.89;39.46;;
46749;Laerm;33775;47.992;11.864;2023-04-12T09:45:26;36.74;29.92;39.78;;
46749;Laerm;33775;47.992;11.864;2023-04-12T09:47:52;36.76;30.89;40.03;;
46749;Laerm;33775;47.992;11.864;2023-04-12T09:50:21;36.87;30.89;39.58;;
46749;Laerm;33775;47.992;11.864;2023-04-12T09:52:47;36.94;30.89;39.81;;
46749;Laerm;33775;47.992;11.864;2023-04-12T09:55:12;36.97;32.35;39.70;;
46749;Laerm;33775;47.992;11.864;2023-04-12T09:57:41;36.99;31.68;40.03;;
46749;Laerm;33775;47.992;11.864;2023-04-12T10:00:07;36.92;31.68;40.23;;
46749;Laerm;33775;47.992;11.864;2023-04-12T10:02:41;36.88;31.68;39.81;;
46749;Laerm;33775;47.992;11.864;2023-04-12T10:05:08;36.87;30.89;39.81;;
46749;Laerm;33775;47.992;11.864;2023-04-12T10:07:43;36.92;31.68;39.81;;
46749;Laerm;33775;47.992;11.864;2023-04-12T10:10:09;36.86;31.68;39.92;;
46749;Laerm;33775;47.992;11.864;2023-04-12T10:12:36;36.91;32.35;39.70;;
46749;Laerm;33775;47.992;11.864;2023-04-12T10:15:05;36.94;31.68;40.03;;
46749;Laerm;33775;47.992;11.864;2023-04-12T10:17:31;36.93;31.68;40.03;;
46749;Laerm;33775;47.992;11.864;2023-04-12T10:19:56;36.94;31.68;39.81;;
46749;Laerm;33775;47.992;11.864;2023-04-12T10:22:23;36.93;31.68;39.81;;
46749;Laerm;33775;47.992;11.864;2023-04-12T10:24:48;36.96;29.92;39.92;;
46749;Laerm;33775;47.992;11.864;2023-04-12T10:27:13;36.95;32.35;39.70;;
46749;Laerm;33775;47.992;11.864;2023-04-12T10:29:48;36.97;30.89;40.13;;
46749;Laerm;33775;47.992;11.864;2023-04-12T10:32:20;36.88;30.89;39.70;;
46749;Laerm;33775;47.992;11.864;2023-04-12T10:34:53;36.81;29.92;39.70;;
46749;Laerm;33775;47.992;11.864;2023-04-12T10:37:18;36.78;30.89;39.81;;
46749;Laerm;33775;47.992;11.864;2023-04-12T10:39:44;36.82;29.92;40.08;;
46749;Laerm;33775;47.992;11.864;2023-04-12T10:42:27;36.83;30.89;39.81;;
46749;Laerm;33775;47.992;11.864;2023-04-12T10:44:53;36.79;30.89;40.03;;
46749;Laerm;33775;47.992;11.864;2023-04-12T10:47:54;36.78;31.68;40.13;;
46749;Laerm;33775;47.992;11.864;2023-04-12T10:50:24;36.83;5.00;39.81;;
46749;Laerm;33775;47.992;11.864;2023-04-12T10:55:36;36.90;31.68;39.70;;
46749;Laerm;33775;47.992;11.864;2023-04-12T10:58:02;37.04;30.89;39.70;;
46749;Laerm;33775;47.992;11.864;2023-04-12T11:01:08;37.10;33.44;40.03;;
46749;Laerm;33775;47.992;11.864;2023-04-12T11:03:12;37.17;32.35;39.70;;
46749;Laerm;33775;47.992;11.864;2023-04-12T11:08:22;37.27;32.93;40.03;;
46749;Laerm;33775;47.992;11.864;2023-04-12T11:10:47;37.28;31.33;39.92;;
46749;Laerm;33775;47.992;11.864;2023-04-12T11:13:13;37.19;32.93;39.92;;
46749;Laerm;33775;47.992;11.864;2023-04-12T11:15:38;37.17;32.93;39.92;;
46749;Laerm;33775;47.992;11.864;2023-04-12T11:18:04;37.13;32.93;39.81;;
46749;Laerm;33775;47.992;11.864;2023-04-12T11:20:30;37.12;32.35;39.81;;
46749;Laerm;33775;47.992;11.864;2023-04-12T11:22:57;37.16;32.35;39.92;;
46749;Laerm;33775;47.992;11.864;2023-04-12T11:25:22;37.20;32.35;40.03;;
46749;Laerm;33775;47.992;11.864;2023-04-12T11:27:51;37.18;32.35;40.23;;
46749;Laerm;33775;47.992;11.864;2023-04-12T11:30:19;37.19;33.44;40.13;;
46749;Laerm;33775;47.992;11.864;2023-04-12T11:32:44;37.22;30.54;45.39;;
46749;Laerm;33775;47.992;11.864;2023-04-12T11:35:10;37.14;32.93;39.81;;
46749;Laerm;33775;47.992;11.864;2023-04-12T11:37:35;37.14;32.35;39.81;;
46749;Laerm;33775;47.992;11.864;2023-04-12T11:40:02;37.17;32.58;39.70;;
46749;Laerm;33775;47.992;11.864;2023-04-12T11:42:29;37.17;31.68;39.92;;
46749;Laerm;33775;47.992;11.864;2023-04-12T11:44:54;37.14;30.89;39.81;;
46749;Laerm;33775;47.992;11.864;2023-04-12T11:47:21;37.12;32.93;40.03;;
46749;Laerm;33775;47.992;11.864;2023-04-12T11:49:50;37.18;32.93;39.81;;
46749;Laerm;33775;47.992;11.864;2023-04-12T11:52:16;37.16;32.93;40.13;;
46749;Laerm;33775;47.992;11.864;2023-04-12T11:54:42;37.29;32.93;39.92;;
46749;Laerm;33775;47.992;11.864;2023-04-12T11:57:09;37.25;23.55;42.47;;
46749;Laerm;33775;47.992;11.864;2023-04-12T11:59:35;37.19;32.93;39.92;;
46749;Laerm;33775;47.992;11.864;2023-04-12T12:02:00;37.16;33.44;40.13;;
46749;Laerm;33775;47.992;11.864;2023-04-12T12:04:28;37.16;30.89;40.03;;
46749;Laerm;33775;47.992;11.864;2023-04-12T12:06:54;37.17;32.93;39.92;;
46749;Laerm;33775;47.992;11.864;2023-04-12T12:09:20;37.13;32.35;39.92;;
46749;Laerm;33775;47.992;11.864;2023-04-12T12:11:46;37.13;32.93;40.23;;
46749;Laerm;33775;47.992;11.864;2023-04-12T12:14:11;37.07;31.68;39.81;;
46749;Laerm;33775;47.992;11.864;2023-04-12T12:16:36;37.10;32.93;39.70;;
46749;Laerm;33775;47.992;11.864;2023-04-12T12:19:05;37.08;32.35;39.92;;
46749;Laerm;33775;47.992;11.864;2023-04-12T12:21:30;37.05;32.35;39.92;;
46749;Laerm;33775;47.992;11.864;2023-04-12T12:23:55;37.10;32.93;40.03;;
46749;Laerm;33775;47.992;11.864;2023-04-12T12:26:22;37.06;32.35;39.92;;
46749;Laerm;33775;47.992;11.864;2023-04-12T12:28:48;37.09;32.93;40.03;;
46749;Laerm;33775;47.992;11.864;2023-04-12T12:31:16;37.06;32.35;39.81;;
46749;Laerm;33775;47.992;11.864;2023-04-12T12:33:42;37.05;32.93;39.70;;
46749;Laerm;33775;47.992;11.864;2023-04-12T12:36:08;37.01;33.44;39.81;;
46749;Laerm;33775;47.992;11.864;2023-04-12T12:38:36;37.07;31.68;39.92;;
46749;Laerm;33775;47.992;11.864;2023-04-12T12:43:42;37.00;32.35;39.81;;
46749;Laerm;33775;47.992;11.864;2023-04-12T12:46:08;37.01;31.68;39.70;;
46749;Laerm;33775;47.992;11.864;2023-04-12T12:48:37;37.05;32.35;39.81;;
46749;Laerm;33775;47.992;11.864;2023-04-12T12:51:02;36.99;32.35;39.81;;
46749;Laerm;33775;47.992;11.864;2023-04-12T12:53:28;36.99;31.33;40.13;;
46749;Laerm;33775;47.992;11.864;2023-04-12T12:55:53;37.02;31.68;39.58;;
46749;Laerm;33775;47.992;11.864;2023-04-12T12:58:18;37.03;32.35;39.81;;
46749;Laerm;33775;47.992;11.864;2023-04-12T13:00:43;37.04;32.35;39.81;;
46749;Laerm;33775;47.992;11.864;2023-04-12T13:03:08;37.03;32.35;39.70;;
46749;Laerm;33775;47.992;11.864;2023-04-12T13:05:34;37.03;31.68;39.92;;
46749;Laerm;33775;47.992;11.864;2023-04-12T13:07:59;37.06;31.68;40.03;;
46749;Laerm;33775;47.992;11.864;2023-04-12T13:10:24;37.07;31.68;39.70;;
46749;Laerm;33775;47.992;11.864;2023-04-12T13:12:51;37.05;29.92;39.81;;
46749;Laerm;33775;47.992;11.864;2023-04-12T13:15:16;37.05;32.93;39.81;;
46749;Laerm;33775;47.992;11.864;2023-04-12T13:17:41;37.02;32.35;39.92;;
46749;Laerm;33775;47.992;11.864;2023-04-12T13:20:06;37.05;32.35;39.58;;
46749;Laerm;33775;47.992;11.864;2023-04-12T13:22:33;37.02;32.93;39.58;;
46749;Laerm;33775;47.992;11.864;2023-04-12T13:24:58;37.00;30.89;39.81;;
46749;Laerm;33775;47.992;11.864;2023-04-12T13:27:24;37.03;31.68;40.13;;
46749;Laerm;33775;47.992;11.864;2023-04-12T13:29:49;37.03;30.89;39.70;;
46749;Laerm;33775;47.992;11.864;2023-04-12T13:32:14;37.03;32.35;39.81;;
46749;Laerm;33775;47.992;11.864;2023-04-12T13:34:41;37.03;32.35;39.70;;
46749;Laerm;33775;47.992;11.864;2023-04-12T13:37:06;37.02;32.00;39.92;;
46749;Laerm;33775;47.992;11.864;2023-04-12T13:39:32;37.06;32.93;39.70;;
46749;Laerm;33775;47.992;11.864;2023-04-12T13:41:58;37.08;32.35;39.70;;
46749;Laerm;33775;47.992;11.864;2023-04-12T13:44:23;37.07;32.35;39.58;;
46749;Laerm;33775;47.992;11.864;2023-04-12T13:46:51;37.05;32.35;40.03;;